createdAt,value
2019-05-13T00:00:44.687Z,101148.66
2019-05-13T00:03:15.668Z,101145.52
2019-05-13T00:05:46.903Z,101155.30
2019-05-13T00:08:18.135Z,101155.30
2019-05-13T00:10:49.424Z,101164.20
2019-05-13T00:13:20.555Z,101161.55
2019-05-13T00:15:51.605Z,101154.52
2019-05-13T00:18:23.532Z,101157.61
2019-05-13T00:20:55.937Z,101164.33
2019-05-13T00:23:28.410Z,101161.25
2019-05-13T00:25:59.602Z,101163.11
2019-05-13T00:28:30.931Z,101157.38
2019-05-13T00:31:03.708Z,101163.61
2019-05-13T00:33:34.875Z,101168.55
2019-05-13T00:36:06.085Z,101166.27
2019-05-13T00:38:37.378Z,101168.55
2019-05-13T00:41:08.557Z,101164.95
2019-05-13T00:43:39.775Z,101166.27
2019-05-13T00:46:10.980Z,101155.64
2019-05-13T00:48:43.983Z,101160.52
2019-05-13T00:51:15.214Z,101161.84
2019-05-13T00:53:46.378Z,101158.41
2019-05-13T00:56:17.671Z,101160.66
2019-05-13T00:58:48.855Z,101162.41
2019-05-13T01:01:19.987Z,101163.73
2019-05-13T01:03:53.194Z,101166.92
2019-05-13T01:06:24.181Z,101166.03
2019-05-13T01:08:55.265Z,101170.91
2019-05-13T01:11:26.381Z,101169.17
2019-05-13T01:13:57.611Z,101180.22
2019-05-13T01:16:28.843Z,101179.81
2019-05-13T01:19:00.048Z,101182.59
2019-05-13T01:21:31.195Z,101172.98
2019-05-13T01:24:03.727Z,101171.17
2019-05-13T01:26:35.750Z,101170.38
2019-05-13T01:29:06.809Z,101176.97
2019-05-13T01:31:38.186Z,101180.95
2019-05-13T01:34:09.446Z,101177.35
2019-05-13T01:36:40.700Z,101175.58
2019-05-13T01:39:13.913Z,101180.01
2019-05-13T01:41:44.716Z,101178.30
2019-05-13T01:44:15.853Z,101186.27
2019-05-13T01:46:47.104Z,101182.28
2019-05-13T01:49:19.781Z,101180.90
2019-05-13T01:51:54.117Z,101181.81
2019-05-13T01:54:25.690Z,101183.56
2019-05-13T01:56:57.071Z,101182.67
2019-05-13T01:59:28.316Z,101180.95
2019-05-13T02:01:59.998Z,101181.34
2019-05-13T02:04:33.393Z,101177.83
2019-05-13T02:07:04.499Z,101179.16
2019-05-13T02:09:36.186Z,101179.22
2019-05-13T02:12:07.514Z,101181.81
2019-05-13T02:14:38.768Z,101182.28
2019-05-13T02:17:09.878Z,101177.35
2019-05-13T02:19:44.088Z,101184.41
2019-05-13T02:22:14.936Z,101179.09
2019-05-13T02:24:47.071Z,101185.30
2019-05-13T02:27:18.262Z,101181.88
2019-05-13T02:29:49.320Z,101184.23
2019-05-13T02:32:23.522Z,101178.00
2019-05-13T02:34:53.545Z,101185.00
2019-05-13T02:37:29.023Z,101177.05
2019-05-13T02:39:57.608Z,101173.06
2019-05-13T02:42:28.846Z,101176.61
2019-05-13T02:45:03.441Z,101170.82
2019-05-13T02:47:33.145Z,101169.44
2019-05-13T02:50:06.651Z,101172.56
2019-05-13T02:52:37.807Z,101176.49
2019-05-13T02:55:12.031Z,101175.64
2019-05-13T02:57:43.603Z,101177.41
2019-05-13T03:00:15.600Z,101174.31
2019-05-13T03:02:46.711Z,101173.78
2019-05-13T03:05:17.823Z,101174.61
2019-05-13T03:07:52.803Z,101178.06
2019-05-13T03:10:22.500Z,101181.99
2019-05-13T03:12:53.716Z,101187.73
2019-05-13T03:15:26.482Z,101186.81
2019-05-13T03:18:05.569Z,101187.31
2019-05-13T03:20:37.498Z,101182.88
2019-05-13T03:23:12.529Z,101194.38
2019-05-13T03:25:43.075Z,101196.18
2019-05-13T03:28:14.481Z,101194.84
2019-05-13T03:30:46.469Z,101194.31
2019-05-13T03:33:20.057Z,101191.16
2019-05-13T03:35:55.724Z,101200.78
2019-05-13T03:38:24.687Z,101199.44
2019-05-13T03:40:55.813Z,101197.69
2019-05-13T03:43:26.949Z,101201.67
2019-05-13T03:45:58.072Z,101202.53
2019-05-13T03:48:29.239Z,101204.75
2019-05-13T03:51:02.724Z,101204.75
2019-05-13T03:53:33.430Z,101202.03
2019-05-13T03:56:04.601Z,101208.09
2019-05-13T03:58:35.718Z,101209.77
2019-05-13T04:01:06.871Z,101209.77
2019-05-13T04:03:38.101Z,101208.00
2019-05-13T04:06:13.065Z,101213.32
2019-05-13T04:08:43.988Z,101214.66
2019-05-13T04:11:16.475Z,101213.70
2019-05-13T04:13:47.777Z,101220.77
2019-05-13T04:16:19.043Z,101215.86
2019-05-13T04:18:53.349Z,101218.94
2019-05-13T04:21:23.074Z,101215.33
2019-05-13T04:23:54.302Z,101212.87
2019-05-13T04:26:25.240Z,101210.89
2019-05-13T04:28:57.517Z,101218.70
2019-05-13T04:31:28.629Z,101211.80
2019-05-13T04:34:02.232Z,101219.58
2019-05-13T04:36:32.556Z,101221.08
2019-05-13T04:39:05.410Z,101216.39
2019-05-13T04:41:36.488Z,101215.72
2019-05-13T04:44:07.839Z,101211.45
2019-05-13T04:46:39.341Z,101213.83
2019-05-13T04:49:12.543Z,101214.97
2019-05-13T04:51:43.392Z,101218.61
2019-05-13T04:54:14.501Z,101221.02
2019-05-13T04:56:46.651Z,101219.27
2019-05-13T04:59:17.870Z,101218.42
2019-05-13T05:02:08.961Z,101218.50
2019-05-13T05:04:52.623Z,101223.06
2019-05-13T05:07:43.501Z,101215.72
2019-05-13T05:10:30.311Z,101222.01
2019-05-13T05:13:25.634Z,101228.16
2019-05-13T05:16:18.102Z,101222.55
2019-05-13T05:19:02.232Z,101219.95
2019-05-13T05:21:43.014Z,101222.89
2019-05-13T05:24:29.378Z,101231.38
2019-05-13T05:27:15.726Z,101232.44
2019-05-13T05:30:06.523Z,101233.77
2019-05-13T05:32:51.803Z,101237.77
2019-05-13T05:35:52.033Z,101237.29
2019-05-13T05:38:54.489Z,101239.61
2019-05-13T05:41:27.541Z,101238.00
2019-05-13T05:43:58.788Z,101239.81
2019-05-13T05:46:32.354Z,101237.49
2019-05-13T05:49:05.989Z,101240.50
2019-05-13T05:51:38.600Z,101242.45
2019-05-13T05:54:14.792Z,101246.31
2019-05-13T05:56:45.059Z,101238.85
2019-05-13T05:59:16.253Z,101239.53
2019-05-13T06:01:47.686Z,101238.66
2019-05-13T06:04:21.438Z,101235.55
2019-05-13T06:06:54.769Z,101235.55
2019-05-13T06:09:26.250Z,101238.62
2019-05-13T06:11:57.382Z,101233.27
2019-05-13T06:14:28.641Z,101240.72
2019-05-13T06:17:02.636Z,101238.13
2019-05-13T06:19:33.772Z,101238.09
2019-05-13T06:22:04.841Z,101236.67
2019-05-13T06:24:36.075Z,101236.22
2019-05-13T06:27:07.215Z,101234.98
2019-05-13T06:29:38.498Z,101242.09
2019-05-13T06:32:19.031Z,101232.75
2019-05-13T06:34:42.497Z,101230.66
2019-05-13T06:37:13.790Z,101237.84
2019-05-13T06:39:45.086Z,101230.16
2019-05-13T06:42:16.151Z,101231.29
2019-05-13T06:44:51.220Z,101230.52
2019-05-13T06:47:22.708Z,101227.10
2019-05-13T06:49:56.002Z,101226.48
2019-05-13T06:52:27.141Z,101218.75
2019-05-13T06:54:58.351Z,101218.53
2019-05-13T06:57:29.554Z,101209.63
2019-05-13T07:00:02.513Z,101211.58
2019-05-13T07:02:33.696Z,101213.83
2019-05-13T07:05:07.141Z,101205.77
2019-05-13T07:07:38.337Z,101208.48
2019-05-13T07:10:09.552Z,101203.30
2019-05-13T07:12:41.169Z,101197.56
2019-05-13T07:15:12.861Z,101198.73
2019-05-13T07:17:45.693Z,101204.61
2019-05-13T07:20:16.983Z,101203.71
2019-05-13T07:22:48.104Z,101206.05
2019-05-13T07:25:22.052Z,101204.95
2019-05-13T07:27:52.204Z,101201.62
2019-05-13T07:30:38.482Z,101205.85
2019-05-13T07:33:12.291Z,101199.72
2019-05-13T07:35:45.029Z,101198.58
2019-05-13T07:38:15.543Z,101207.39
2019-05-13T07:40:46.703Z,101210.37
2019-05-13T07:43:17.922Z,101207.00
2019-05-13T07:45:51.311Z,101205.30
2019-05-13T07:48:27.479Z,101194.35
2019-05-13T07:51:00.265Z,101196.17
2019-05-13T07:53:27.620Z,101192.66
2019-05-13T07:55:58.852Z,101193.41
2019-05-13T07:58:36.168Z,101193.89
2019-05-13T08:01:03.071Z,101185.72
2019-05-13T08:03:34.352Z,101193.74
2019-05-13T08:06:05.588Z,101200.38
2019-05-13T08:08:36.946Z,101195.17
2019-05-13T08:11:09.061Z,101192.91
2019-05-13T08:13:41.565Z,101194.53
2019-05-13T08:16:13.085Z,101190.59
2019-05-13T08:18:44.135Z,101190.81
2019-05-13T08:21:15.271Z,101185.67
2019-05-13T08:23:46.289Z,101190.09
2019-05-13T08:26:17.437Z,101180.33
2019-05-13T08:29:00.068Z,101192.66
2019-05-13T08:31:21.926Z,101192.28
2019-05-13T08:33:53.250Z,101186.33
2019-05-13T08:36:25.770Z,101184.17
2019-05-13T08:38:56.844Z,101188.02
2019-05-13T08:41:28.171Z,101192.25
2019-05-13T08:44:01.558Z,101186.09
2019-05-13T08:46:32.466Z,101188.88
2019-05-13T08:49:06.813Z,101191.86
2019-05-13T08:51:38.293Z,101193.66
2019-05-13T08:54:11.475Z,101197.59
2019-05-13T08:56:42.399Z,101195.30
2019-05-13T08:59:15.119Z,101182.53
2019-05-13T09:01:46.524Z,101188.78
2019-05-13T09:04:17.787Z,101188.48
2019-05-13T09:06:49.134Z,101182.55
2019-05-13T09:09:21.997Z,101178.06
2019-05-13T09:11:54.570Z,101178.03
2019-05-13T09:14:25.775Z,101172.75
2019-05-13T09:16:57.815Z,101170.37
2019-05-13T09:19:29.088Z,101178.92
2019-05-13T09:22:03.010Z,101175.84
2019-05-13T09:24:37.654Z,101171.91
2019-05-13T09:27:06.702Z,101173.05
2019-05-13T09:29:38.052Z,101172.11
2019-05-13T09:32:12.124Z,101168.27
2019-05-13T09:34:47.692Z,101171.51
2019-05-13T09:37:19.320Z,101169.20
2019-05-13T09:39:51.675Z,101180.55
2019-05-13T09:42:23.922Z,101178.16
2019-05-13T09:44:55.514Z,101176.31
2019-05-13T09:47:32.174Z,101175.19
2019-05-13T09:50:06.313Z,101177.88
2019-05-13T09:52:39.727Z,101174.83
2019-05-13T09:55:24.760Z,101173.05
2019-05-13T09:57:44.238Z,101173.93
2019-05-13T10:00:21.611Z,101173.05
2019-05-13T10:02:53.539Z,101164.81
2019-05-13T10:05:27.266Z,101164.21
2019-05-13T10:07:58.468Z,101160.98
2019-05-13T10:10:31.925Z,101173.64
2019-05-13T10:13:11.326Z,101155.77
2019-05-13T10:15:38.428Z,101155.69
2019-05-13T10:18:12.600Z,101161.78
2019-05-13T10:20:55.281Z,101156.91
2019-05-13T10:23:25.253Z,101167.20
2019-05-13T10:26:03.713Z,101164.14
2019-05-13T10:28:35.235Z,101169.41
2019-05-13T10:31:07.948Z,101165.19
2019-05-13T10:33:41.800Z,101161.91
2019-05-13T10:36:15.540Z,101162.11
2019-05-13T10:38:47.615Z,101170.07
2019-05-13T10:41:18.555Z,101158.19
2019-05-13T10:43:52.081Z,101160.21
2019-05-13T10:46:22.970Z,101158.08
2019-05-13T10:48:54.234Z,101155.97
2019-05-13T10:51:25.582Z,101155.41
2019-05-13T10:53:59.595Z,101154.05
2019-05-13T10:56:32.758Z,101152.34
2019-05-13T10:59:03.520Z,101150.98
2019-05-13T11:01:35.059Z,101146.96
2019-05-13T11:04:06.512Z,101140.22
2019-05-13T11:06:37.974Z,101143.09
2019-05-13T11:09:12.947Z,101144.12
2019-05-13T11:11:43.738Z,101144.80
2019-05-13T11:14:16.419Z,101139.50
2019-05-13T11:16:51.342Z,101134.69
2019-05-13T11:19:23.364Z,101129.69
2019-05-13T11:21:55.981Z,101132.17
2019-05-13T11:24:27.462Z,101129.20
2019-05-13T11:27:02.733Z,101127.55
2019-05-13T11:29:34.617Z,101121.00
2019-05-13T11:32:06.002Z,101120.71
2019-05-13T11:34:37.225Z,101125.98
2019-05-13T11:37:08.536Z,101123.19
2019-05-13T11:39:42.626Z,101122.63
2019-05-13T11:42:13.579Z,101118.02
2019-05-13T11:44:45.661Z,101115.86
2019-05-13T11:47:16.900Z,101117.59
2019-05-13T11:49:48.437Z,101115.86
2019-05-13T11:52:21.891Z,101107.61
2019-05-13T11:54:54.398Z,101105.98
2019-05-13T11:57:25.705Z,101108.39
2019-05-13T11:59:57.524Z,101102.80
2019-05-13T12:02:28.793Z,101105.27
2019-05-13T12:05:03.600Z,101105.44
2019-05-13T12:07:33.147Z,101103.52
2019-05-13T12:10:06.554Z,101105.26
2019-05-13T12:12:37.859Z,101092.20
2019-05-13T12:15:27.029Z,101090.68
2019-05-13T12:17:43.935Z,101094.61
2019-05-13T12:20:15.548Z,101099.71
2019-05-13T12:22:47.485Z,101100.92
2019-05-13T12:25:22.219Z,101097.42
2019-05-13T12:27:52.056Z,101096.28
2019-05-13T12:30:23.365Z,101094.80
2019-05-13T12:32:54.857Z,101097.70
2019-05-13T12:35:27.460Z,101096.39
2019-05-13T12:37:59.077Z,101099.39
2019-05-13T12:40:33.843Z,101097.02
2019-05-13T12:43:03.225Z,101094.53
2019-05-13T12:45:36.178Z,101094.36
2019-05-13T12:48:07.640Z,101086.00
2019-05-13T12:50:43.158Z,101086.67
2019-05-13T12:53:13.591Z,101076.02
2019-05-13T12:55:52.744Z,101070.86
2019-05-13T12:58:19.296Z,101066.71
2019-05-13T13:00:53.242Z,101067.66
2019-05-13T13:03:24.238Z,101064.02
2019-05-13T13:06:21.129Z,101061.34
2019-05-13T13:08:42.025Z,101062.68
2019-05-13T13:11:02.399Z,101059.60
2019-05-13T13:13:56.841Z,101057.30
2019-05-13T13:16:06.792Z,101053.66
2019-05-13T13:18:43.519Z,101051.93
2019-05-13T13:21:15.803Z,101048.67
2019-05-13T13:23:47.077Z,101048.48
2019-05-13T13:26:18.357Z,101043.32
2019-05-13T13:28:55.107Z,101047.91
2019-05-13T13:31:25.138Z,101034.13
2019-05-13T13:33:55.855Z,101033.94
2019-05-13T13:36:27.484Z,101028.73
2019-05-13T13:38:59.675Z,101024.34
2019-05-13T13:41:32.757Z,101027.59
2019-05-13T13:44:07.340Z,101027.31
2019-05-13T13:46:44.673Z,101021.30
2019-05-13T13:49:13.025Z,101018.61
2019-05-13T13:51:45.198Z,101017.27
2019-05-13T13:54:17.101Z,101018.61
2019-05-13T13:56:55.886Z,101018.78
2019-05-13T13:59:25.212Z,101021.47
2019-05-13T14:01:56.619Z,101018.78
2019-05-13T14:04:27.996Z,101015.53
2019-05-13T14:09:32.695Z,101011.89
2019-05-13T14:12:06.311Z,101009.56
2019-05-13T14:14:41.538Z,101012.08
2019-05-13T14:17:12.874Z,101008.80
2019-05-13T14:19:44.302Z,101012.72
2019-05-13T14:22:15.694Z,101014.35
2019-05-13T14:24:51.863Z,101009.76
2019-05-13T14:27:23.431Z,101010.50
2019-05-13T14:29:55.901Z,101010.30
2019-05-13T14:32:27.695Z,101008.84
2019-05-13T14:35:02.212Z,101000.13
2019-05-13T14:37:32.052Z,101007.23
2019-05-13T14:40:06.902Z,101013.34
2019-05-13T14:42:38.591Z,101010.09
2019-05-13T14:45:12.076Z,101009.60
2019-05-13T14:47:42.791Z,101005.85
2019-05-13T14:50:14.072Z,101006.24
2019-05-13T14:52:45.487Z,101001.26
2019-05-13T14:55:16.835Z,101002.95
2019-05-13T14:57:48.359Z,101002.95
2019-05-13T15:00:21.945Z,101004.69
2019-05-13T15:02:55.259Z,101005.00
2019-05-13T15:05:26.630Z,101008.94
2019-05-13T15:07:58.489Z,101006.25
2019-05-13T15:10:31.482Z,101000.88
2019-05-13T15:13:03.879Z,100994.75
2019-05-13T15:15:35.491Z,100997.44
2019-05-13T15:18:06.951Z,100997.05
2019-05-13T15:20:38.133Z,100993.09
2019-05-13T15:23:11.895Z,100995.88
2019-05-13T15:25:42.897Z,100995.95
2019-05-13T15:28:14.342Z,100994.92
2019-05-13T15:30:47.493Z,100994.53
2019-05-13T15:33:22.062Z,100992.84
2019-05-13T15:35:53.747Z,101003.59
2019-05-13T15:38:32.176Z,101002.06
2019-05-13T15:41:15.788Z,101013.19
2019-05-13T15:43:47.691Z,101018.48
2019-05-13T15:46:18.995Z,101013.23
2019-05-13T15:48:51.376Z,101019.77
2019-05-13T15:51:25.056Z,101018.22
2019-05-13T15:53:57.348Z,101023.38
2019-05-13T15:56:31.653Z,101020.32
2019-05-13T15:59:03.342Z,101018.77
2019-05-13T16:01:34.902Z,101019.16
2019-05-13T16:04:06.108Z,101007.73
2019-05-13T16:06:37.407Z,101017.80
2019-05-13T16:09:11.489Z,101013.78
2019-05-13T16:11:42.238Z,101003.53
2019-05-13T16:14:13.457Z,101012.25
2019-05-13T16:16:45.344Z,101013.98
2019-05-13T16:19:19.875Z,101021.86
2019-05-13T16:21:52.599Z,101023.02
2019-05-13T16:24:24.155Z,101020.55
2019-05-13T16:26:55.288Z,101023.42
2019-05-13T16:29:26.391Z,101022.82
2019-05-13T16:32:01.520Z,101017.23
2019-05-13T16:34:32.154Z,101009.38
2019-05-13T16:37:03.349Z,101030.42
2019-05-13T16:39:34.484Z,101050.53
2019-05-13T16:42:05.622Z,101051.68
2019-05-13T16:44:36.936Z,101045.88
2019-05-13T16:47:08.411Z,101040.28
2019-05-13T16:49:41.120Z,101034.49
2019-05-13T16:52:12.463Z,101040.67
2019-05-13T16:54:43.780Z,101040.59
2019-05-13T16:57:14.866Z,101045.52
2019-05-13T16:59:45.974Z,101040.53
2019-05-13T17:02:18.167Z,101036.92
2019-05-13T17:04:49.292Z,101043.48
2019-05-13T17:07:21.291Z,101039.34
2019-05-13T17:09:52.424Z,101045.01
2019-05-13T17:12:25.112Z,101040.45
2019-05-13T17:14:56.264Z,101042.45
2019-05-13T17:17:27.313Z,101028.86
2019-05-13T17:19:58.604Z,101033.05
2019-05-13T17:22:31.586Z,101023.81
2019-05-13T17:25:02.898Z,101026.36
2019-05-13T17:27:34.074Z,101023.00
2019-05-13T17:30:07.982Z,101023.19
2019-05-13T17:32:39.361Z,101021.55
2019-05-13T17:35:11.622Z,101022.20
2019-05-13T17:37:43.183Z,101023.76
2019-05-13T17:40:14.412Z,101018.58
2019-05-13T17:42:45.425Z,101026.78
2019-05-13T17:45:18.086Z,101021.52
2019-05-13T17:47:51.854Z,101025.75
2019-05-13T17:50:22.412Z,101030.81
2019-05-13T17:52:53.737Z,101031.03
2019-05-13T17:55:24.966Z,101040.56
2019-05-13T17:57:56.101Z,101039.47
2019-05-13T18:00:27.296Z,101046.77
2019-05-13T18:02:59.199Z,101046.05
2019-05-13T18:05:31.510Z,101047.64
2019-05-13T18:08:02.874Z,101044.65
2019-05-13T18:10:34.091Z,101056.84
2019-05-13T18:13:06.405Z,101048.50
2019-05-13T18:15:37.570Z,101045.06
2019-05-13T18:18:08.766Z,101043.41
2019-05-13T18:20:41.524Z,101037.66
2019-05-13T18:23:12.846Z,101030.25
2019-05-13T18:25:44.113Z,101026.81
2019-05-13T18:28:27.478Z,101028.84
2019-05-13T18:30:48.105Z,101033.55
2019-05-13T18:33:21.068Z,101033.27
2019-05-13T18:35:52.642Z,101030.44
2019-05-13T18:38:23.915Z,101028.58
2019-05-13T18:40:55.071Z,101035.38
2019-05-13T18:43:26.110Z,101033.80
2019-05-13T18:45:57.379Z,101025.55
2019-05-13T18:48:28.511Z,101030.20
2019-05-13T18:51:01.290Z,101030.72
2019-05-13T18:53:32.802Z,101024.81
2019-05-13T18:56:04.092Z,101018.14
2019-05-13T18:58:35.267Z,101025.77
2019-05-13T19:01:06.476Z,101028.57
2019-05-13T19:03:37.725Z,101021.97
2019-05-13T19:06:11.688Z,101020.80
2019-05-13T19:08:43.169Z,101018.61
2019-05-13T19:11:14.420Z,101027.14
2019-05-13T19:13:45.608Z,101025.48
2019-05-13T19:16:16.964Z,101027.37
2019-05-13T19:18:48.239Z,101020.91
2019-05-13T19:21:21.740Z,101029.23
2019-05-13T19:23:52.462Z,101027.53
2019-05-13T19:26:23.735Z,101025.31
2019-05-13T19:28:55.036Z,101028.47
2019-05-13T19:31:26.289Z,101030.33
2019-05-13T19:34:01.500Z,101007.78
2019-05-13T19:36:32.810Z,101007.78
2019-05-13T19:39:06.502Z,101023.73
2019-05-13T19:41:38.920Z,101023.33
2019-05-13T19:44:10.054Z,101019.88
2019-05-13T19:46:42.124Z,101012.80
2019-05-13T19:49:28.283Z,101006.70
2019-05-13T19:51:46.544Z,101008.03
2019-05-13T19:54:17.585Z,101007.63
2019-05-13T19:56:48.835Z,101013.89
2019-05-13T19:59:21.607Z,101012.63
2019-05-13T20:01:53.885Z,101014.82
2019-05-13T20:04:25.056Z,101004.22
2019-05-13T20:06:56.347Z,101010.04
2019-05-13T20:09:27.589Z,101003.85
2019-05-13T20:11:58.810Z,101003.85
2019-05-13T20:14:30.423Z,101008.70
2019-05-13T20:17:01.894Z,100991.11
2019-05-13T20:19:46.548Z,100994.11
2019-05-13T20:22:06.461Z,100998.96
2019-05-13T20:24:38.241Z,100991.92
2019-05-13T20:27:11.842Z,100994.59
2019-05-13T20:29:42.447Z,100991.97
2019-05-13T20:32:13.618Z,100987.67
2019-05-13T20:34:44.740Z,100981.93
2019-05-13T20:37:15.919Z,100970.97
2019-05-13T20:39:47.102Z,100991.27
2019-05-13T20:42:18.394Z,100989.53
2019-05-13T20:44:51.412Z,100987.34
2019-05-13T20:47:22.537Z,100993.53
2019-05-13T20:50:01.386Z,100975.42
2019-05-13T20:52:26.666Z,100972.83
2019-05-13T20:54:57.872Z,100972.06
2019-05-13T20:57:29.318Z,100973.91
2019-05-13T21:00:02.556Z,100971.41
2019-05-13T21:02:35.272Z,100969.66
2019-05-13T21:05:06.472Z,100957.41
2019-05-13T21:07:37.572Z,100957.41
2019-05-13T21:10:11.927Z,100965.41
2019-05-13T21:12:42.584Z,100959.30
2019-05-13T21:15:13.639Z,100956.23
2019-05-13T21:17:44.884Z,100958.49
2019-05-13T21:20:22.056Z,100955.98
2019-05-13T21:22:48.958Z,100956.91
2019-05-13T21:25:20.231Z,100946.14
2019-05-13T21:27:51.557Z,100948.40
2019-05-13T21:30:22.693Z,100948.40
2019-05-13T21:32:53.956Z,100943.22
2019-05-13T21:35:25.074Z,100941.55
2019-05-13T21:37:56.227Z,100941.55
2019-05-13T21:40:27.418Z,100943.52
2019-05-13T21:42:58.731Z,100923.55
2019-05-13T21:45:29.760Z,100936.98
2019-05-13T21:48:01.694Z,100926.20
2019-05-13T21:50:37.219Z,100914.11
2019-05-13T21:53:06.054Z,100932.35
2019-05-13T21:55:41.264Z,100932.47
2019-05-13T21:58:14.146Z,100930.95
2019-05-13T22:00:47.048Z,100930.95
2019-05-13T22:03:18.335Z,100933.70
2019-05-13T22:05:51.500Z,100906.68
2019-05-13T22:08:22.652Z,100906.68
2019-05-13T22:10:53.717Z,100929.33
2019-05-13T22:13:25.379Z,100927.18
2019-05-13T22:15:57.037Z,100929.92
2019-05-13T22:18:28.316Z,100940.25
2019-05-13T22:21:01.380Z,100935.84
2019-05-13T22:23:32.355Z,100935.92
2019-05-13T22:26:03.461Z,100933.73
2019-05-13T22:28:34.836Z,100928.00
2019-05-13T22:31:05.911Z,100928.00
2019-05-13T22:33:37.137Z,100927.22
2019-05-13T22:36:08.278Z,100927.22
2019-05-13T22:38:39.551Z,100928.15
2019-05-13T22:41:11.633Z,100927.34
2019-05-13T22:43:54.549Z,100935.33
2019-05-13T22:46:15.617Z,100926.56
2019-05-13T22:48:46.819Z,100924.34
2019-05-13T22:51:17.898Z,100927.48
2019-05-13T22:53:49.062Z,100925.82
2019-05-13T22:56:22.308Z,100922.30
2019-05-13T22:58:53.693Z,100921.49
2019-05-13T23:01:24.744Z,100918.05
2019-05-13T23:03:57.101Z,100918.97
2019-05-13T23:06:28.234Z,100916.75
2019-05-13T23:09:01.593Z,100910.69
2019-05-13T23:11:33.694Z,100915.23
2019-05-13T23:14:09.556Z,100915.23
2019-05-13T23:16:37.696Z,100908.24
2019-05-13T23:19:11.002Z,100904.69
2019-05-13T23:21:41.945Z,100905.24
2019-05-13T23:24:13.169Z,100900.91
2019-05-13T23:26:44.285Z,100900.91
2019-05-13T23:29:15.662Z,100905.91
2019-05-13T23:31:46.790Z,100909.05
2019-05-13T23:34:17.950Z,100907.31
2019-05-13T23:36:51.380Z,100907.80
2019-05-13T23:39:21.970Z,100908.17
2019-05-13T23:41:53.207Z,100905.65
2019-05-13T23:44:27.991Z,100900.32
2019-05-13T23:46:58.511Z,100899.54
2019-05-13T23:49:31.584Z,100899.61
2019-05-13T23:52:02.677Z,100895.66
2019-05-13T23:54:33.828Z,100895.66
2019-05-13T23:57:04.964Z,100898.88
2019-05-13T23:59:36.162Z,100903.34
